createdAt,value
2017-11-07T00:01:07.668Z,28.33
2017-11-07T00:03:35.282Z,27.52
2017-11-07T00:06:02.902Z,27.35
2017-11-07T00:08:30.534Z,26.00
2017-11-07T00:10:58.149Z,26.80
2017-11-07T00:13:25.776Z,25.85
2017-11-07T00:15:53.410Z,27.77
2017-11-07T00:18:21.070Z,26.48
2017-11-07T00:20:48.683Z,27.45
2017-11-07T00:23:16.260Z,26.58
2017-11-07T00:25:43.870Z,27.58
2017-11-07T00:28:12.251Z,28.20
2017-11-07T00:30:40.639Z,26.85
2017-11-07T00:33:08.254Z,26.87
2017-11-07T00:35:35.863Z,28.35
2017-11-07T00:38:03.441Z,28.17
2017-11-07T00:40:31.067Z,27.52
2017-11-07T00:42:59.451Z,25.48
2017-11-07T00:45:27.943Z,27.52
2017-11-07T00:47:55.617Z,28.10
2017-11-07T00:50:23.193Z,29.60
2017-11-07T00:52:50.766Z,29.05
2017-11-07T00:55:18.374Z,29.50
2017-11-07T00:57:46.815Z,27.83
2017-11-07T01:00:14.448Z,28.23
2017-11-07T01:02:42.033Z,27.42
2017-11-07T01:05:09.647Z,28.75
2017-11-07T01:07:37.298Z,29.05
2017-11-07T01:10:04.892Z,28.35
2017-11-07T01:12:32.569Z,29.50
2017-11-07T01:15:00.186Z,29.52
2017-11-07T01:17:27.763Z,29.15
2017-11-07T01:19:55.337Z,29.70
2017-11-07T01:22:22.951Z,30.62
2017-11-07T01:24:50.566Z,31.95
2017-11-07T01:27:18.141Z,31.10
2017-11-07T01:29:45.758Z,30.23
2017-11-07T01:32:14.129Z,32.00
2017-11-07T01:34:42.464Z,29.77
2017-11-07T01:37:10.077Z,32.47
2017-11-07T01:39:38.464Z,31.73
2017-11-07T01:42:06.047Z,32.03
2017-11-07T01:44:33.659Z,30.35
2017-11-07T01:47:01.297Z,30.55
2017-11-07T01:49:28.915Z,30.23
2017-11-07T01:51:56.489Z,30.35
2017-11-07T01:54:24.102Z,32.17
2017-11-07T01:56:51.730Z,32.60
2017-11-07T01:59:19.371Z,30.12
2017-11-07T02:01:47.046Z,29.90
2017-11-07T02:04:14.650Z,29.60
2017-11-07T02:06:42.224Z,28.27
2017-11-07T02:09:09.849Z,29.42
2017-11-07T02:11:37.475Z,27.60
2017-11-07T02:14:05.144Z,29.12
2017-11-07T02:16:32.753Z,27.85
2017-11-07T02:19:00.398Z,30.15
2017-11-07T02:21:28.058Z,29.75
2017-11-07T02:23:55.639Z,28.85
2017-11-07T02:26:24.034Z,29.67
2017-11-07T02:28:51.677Z,27.70
2017-11-07T02:31:19.319Z,28.05
2017-11-07T02:33:46.956Z,28.15
2017-11-07T02:36:14.586Z,28.75
2017-11-07T02:38:42.259Z,27.37
2017-11-07T02:41:09.896Z,29.52
2017-11-07T02:43:37.510Z,26.90
2017-11-07T02:46:05.149Z,28.05
2017-11-07T02:48:32.777Z,27.08
2017-11-07T02:51:00.394Z,25.92
2017-11-07T02:53:27.965Z,27.95
2017-11-07T02:55:55.551Z,29.77
2017-11-07T02:58:23.143Z,27.87
2017-11-07T03:00:50.796Z,27.70
2017-11-07T03:03:18.363Z,27.98
2017-11-07T03:05:46.084Z,29.25
2017-11-07T03:08:13.678Z,28.55
2017-11-07T03:10:41.320Z,29.60
2017-11-07T03:13:08.931Z,30.15
2017-11-07T03:15:36.514Z,30.10
2017-11-07T03:18:04.126Z,32.03
2017-11-07T03:20:31.754Z,29.45
2017-11-07T03:22:59.367Z,31.90
2017-11-07T03:25:27.034Z,33.50
2017-11-07T03:27:54.618Z,30.55
2017-11-07T03:30:22.237Z,29.75
2017-11-07T03:32:49.859Z,32.70
2017-11-07T03:35:17.503Z,34.45
2017-11-07T03:37:45.083Z,36.72
2017-11-07T03:40:12.753Z,32.58
2017-11-07T03:42:40.386Z,34.25
2017-11-07T03:45:08.058Z,33.90
2017-11-07T03:47:35.644Z,34.15
2017-11-07T03:50:04.021Z,35.92
2017-11-07T03:52:32.413Z,33.83
2017-11-07T03:55:00.815Z,35.25
2017-11-07T03:57:28.416Z,35.80
2017-11-07T03:59:56.043Z,33.58
2017-11-07T04:02:23.694Z,35.88
2017-11-07T04:04:51.324Z,35.05
2017-11-07T04:07:19.724Z,35.58
2017-11-07T04:09:47.383Z,34.13
2017-11-07T04:12:15.786Z,37.30
2017-11-07T04:14:43.427Z,38.75
2017-11-07T04:17:11.063Z,34.45
2017-11-07T04:19:38.660Z,33.97
2017-11-07T04:22:06.376Z,33.60
2017-11-07T04:24:34.016Z,36.95
2017-11-07T04:27:01.656Z,33.50
2017-11-07T04:29:29.284Z,33.03
2017-11-07T04:31:56.892Z,34.25
2017-11-07T04:34:24.524Z,33.63
2017-11-07T04:36:52.102Z,35.05
2017-11-07T04:39:19.794Z,32.20
2017-11-07T04:41:47.393Z,33.03
2017-11-07T04:44:15.822Z,32.47
2017-11-07T04:46:43.495Z,35.05
2017-11-07T04:49:11.127Z,31.98
2017-11-07T04:51:38.754Z,36.33
2017-11-07T04:54:07.215Z,33.83
2017-11-07T04:56:34.809Z,32.28
2017-11-07T04:59:02.411Z,30.77
2017-11-07T05:01:30.013Z,32.08
2017-11-07T05:03:57.634Z,30.70
2017-11-07T05:06:25.266Z,33.47
2017-11-07T05:08:52.987Z,35.25
2017-11-07T05:11:20.643Z,32.83
2017-11-07T05:13:48.255Z,30.65
2017-11-07T05:16:15.880Z,34.75
2017-11-07T05:18:43.549Z,31.98
2017-11-07T05:21:11.993Z,29.77
2017-11-07T05:23:39.633Z,30.23
2017-11-07T05:26:08.017Z,30.73
2017-11-07T05:28:35.686Z,32.00
2017-11-07T05:31:03.355Z,31.83
2017-11-07T05:33:30.938Z,30.20
2017-11-07T05:35:58.574Z,29.00
2017-11-07T05:38:26.268Z,29.65
2017-11-07T05:40:53.895Z,31.30
2017-11-07T05:43:21.486Z,31.35
2017-11-07T05:45:49.156Z,31.02
2017-11-07T05:48:16.758Z,30.35
2017-11-07T05:50:44.402Z,31.45
2017-11-07T05:53:12.807Z,30.83
2017-11-07T05:55:40.492Z,31.00
2017-11-07T05:58:08.072Z,32.05
2017-11-07T06:00:35.777Z,34.10
2017-11-07T06:03:03.663Z,34.72
2017-11-07T06:05:31.256Z,32.60
2017-11-07T06:07:58.902Z,33.42
2017-11-07T06:10:26.544Z,32.50
2017-11-07T06:12:54.942Z,32.75
2017-11-07T06:15:22.554Z,32.42
2017-11-07T06:17:50.202Z,33.78
2017-11-07T06:20:17.813Z,32.80
2017-11-07T06:22:45.445Z,32.00
2017-11-07T06:25:13.093Z,35.05
2017-11-07T06:27:40.723Z,34.95
2017-11-07T06:30:08.382Z,34.13
2017-11-07T06:32:36.007Z,34.15
2017-11-07T06:35:03.612Z,37.95
2017-11-07T06:37:31.274Z,37.05
2017-11-07T06:39:58.895Z,33.58
2017-11-07T06:42:26.511Z,37.88
2017-11-07T06:44:54.123Z,36.53
2017-11-07T06:47:21.789Z,40.30
2017-11-07T06:49:49.464Z,41.60
2017-11-07T06:52:17.066Z,37.55
2017-11-07T06:54:44.704Z,37.42
2017-11-07T06:57:12.346Z,36.33
2017-11-07T06:59:40.008Z,37.35
2017-11-07T07:02:07.616Z,39.90
2017-11-07T07:04:35.320Z,36.85
2017-11-07T07:07:02.944Z,39.10
2017-11-07T07:09:30.568Z,40.65
2017-11-07T07:11:58.167Z,39.03
2017-11-07T07:14:25.759Z,39.90
2017-11-07T07:16:53.415Z,41.05
2017-11-07T07:19:21.002Z,39.50
2017-11-07T07:21:48.618Z,39.03
2017-11-07T07:24:16.234Z,37.92
2017-11-07T07:26:43.823Z,40.55
2017-11-07T07:29:11.487Z,38.63
2017-11-07T07:31:39.174Z,41.10
2017-11-07T07:34:06.854Z,41.15
2017-11-07T07:36:34.453Z,37.75
2017-11-07T07:39:02.082Z,36.95
2017-11-07T07:41:29.677Z,38.70
2017-11-07T07:43:57.369Z,40.40
2017-11-07T07:46:25.811Z,38.72
2017-11-07T07:48:53.435Z,38.40
2017-11-07T07:51:21.059Z,37.97
2017-11-07T07:53:48.674Z,38.80
2017-11-07T07:56:16.293Z,36.28
2017-11-07T07:58:43.919Z,35.30
2017-11-07T08:01:11.555Z,36.33
2017-11-07T08:03:39.443Z,39.40
2017-11-07T08:06:07.070Z,37.97
2017-11-07T08:08:34.671Z,38.88
2017-11-07T08:11:02.278Z,35.83
2017-11-07T08:13:29.945Z,32.13
2017-11-07T08:15:57.651Z,34.92
2017-11-07T08:18:25.286Z,33.83
2017-11-07T08:20:52.872Z,33.92
2017-11-07T08:23:20.511Z,31.75
2017-11-07T08:25:48.087Z,32.67
2017-11-07T08:28:15.665Z,32.10
2017-11-07T08:30:43.290Z,29.33
2017-11-07T08:33:10.911Z,29.40
2017-11-07T08:35:38.526Z,29.95
2017-11-07T08:38:06.102Z,31.37
2017-11-07T08:40:33.714Z,30.70
2017-11-07T08:43:01.339Z,29.63
2017-11-07T08:45:28.978Z,29.90
2017-11-07T08:47:56.596Z,32.72
2017-11-07T08:50:24.184Z,30.75
2017-11-07T08:52:51.796Z,30.75
2017-11-07T08:55:19.388Z,29.77
2017-11-07T08:57:46.974Z,31.02
2017-11-07T09:00:14.671Z,31.08
2017-11-07T09:02:42.283Z,33.47
2017-11-07T09:05:09.935Z,30.98
2017-11-07T09:07:37.794Z,29.95
2017-11-07T09:10:05.448Z,31.08
2017-11-07T09:12:33.975Z,30.75
2017-11-07T09:15:01.614Z,31.80
2017-11-07T09:17:29.312Z,30.98
2017-11-07T09:19:56.972Z,30.70
2017-11-07T09:22:24.546Z,30.05
2017-11-07T09:24:52.132Z,31.85
2017-11-07T09:27:19.722Z,42.10
2017-11-07T09:29:47.303Z,36.05
2017-11-07T09:32:14.930Z,29.15
2017-11-07T09:34:42.554Z,34.50
2017-11-07T09:37:10.135Z,27.73
2017-11-07T09:39:37.750Z,46.42
2017-11-07T09:42:05.364Z,61.90
2017-11-07T09:44:32.986Z,72.20
2017-11-07T09:47:00.629Z,41.60
2017-11-07T09:49:28.215Z,72.37
2017-11-07T09:51:55.827Z,46.50
2017-11-07T09:54:23.444Z,33.60
2017-11-07T09:56:51.040Z,35.58
2017-11-07T09:59:18.732Z,61.55
2017-11-07T10:01:46.355Z,38.72
2017-11-07T10:04:13.945Z,36.78
2017-11-07T10:06:41.683Z,43.10
2017-11-07T10:09:09.283Z,44.53
2017-11-07T10:11:36.940Z,53.33
2017-11-07T10:14:04.945Z,38.05
2017-11-07T10:16:32.639Z,34.10
2017-11-07T10:19:00.213Z,40.40
2017-11-07T10:21:27.871Z,30.83
2017-11-07T10:23:55.582Z,46.92
2017-11-07T10:26:23.326Z,41.17
2017-11-07T10:28:50.946Z,34.75
2017-11-07T10:31:18.548Z,36.05
2017-11-07T10:33:46.289Z,34.22
2017-11-07T10:36:13.884Z,35.38
2017-11-07T10:38:41.543Z,32.35
2017-11-07T10:41:09.178Z,31.77
2017-11-07T10:43:36.842Z,32.10
2017-11-07T10:46:04.448Z,31.10
2017-11-07T10:48:32.083Z,31.70
2017-11-07T10:50:59.715Z,31.02
2017-11-07T10:53:27.358Z,30.35
2017-11-07T10:55:55.120Z,31.25
2017-11-07T10:58:22.742Z,30.15
2017-11-07T11:00:50.419Z,29.58
2017-11-07T11:03:18.061Z,28.90
2017-11-07T11:05:45.722Z,28.50
2017-11-07T11:08:13.351Z,29.48
2017-11-07T11:10:40.966Z,28.92
2017-11-07T11:13:08.615Z,29.45
2017-11-07T11:15:36.266Z,30.70
2017-11-07T11:18:03.886Z,28.48
2017-11-07T11:20:31.570Z,28.35
2017-11-07T11:22:59.183Z,28.62
2017-11-07T11:25:26.807Z,26.42
2017-11-07T11:27:54.386Z,26.80
2017-11-07T11:30:22.003Z,28.12
2017-11-07T11:32:49.612Z,27.05
2017-11-07T11:35:18.324Z,26.45
2017-11-07T11:37:46.774Z,26.80
2017-11-07T11:40:14.487Z,25.20
2017-11-07T11:42:42.199Z,24.95
2017-11-07T11:45:09.832Z,26.23
2017-11-07T11:47:37.487Z,28.33
2017-11-07T11:50:05.083Z,27.87
2017-11-07T11:52:32.711Z,27.08
2017-11-07T11:55:00.436Z,26.25
2017-11-07T11:57:28.056Z,27.90
2017-11-07T11:59:55.689Z,29.40
2017-11-07T12:02:23.353Z,29.25
2017-11-07T12:04:51.047Z,27.92
2017-11-07T12:07:18.648Z,29.00
2017-11-07T12:09:47.154Z,28.42
2017-11-07T12:12:14.796Z,28.75
2017-11-07T12:14:43.186Z,30.35
2017-11-07T12:17:10.849Z,30.90
2017-11-07T12:19:38.479Z,29.40
2017-11-07T12:22:06.132Z,30.92
2017-11-07T12:24:33.826Z,30.00
2017-11-07T12:27:02.208Z,29.67
2017-11-07T12:29:30.574Z,28.33
2017-11-07T12:31:58.170Z,27.20
2017-11-07T12:34:25.803Z,27.83
2017-11-07T12:36:53.547Z,28.70
2017-11-07T12:39:21.222Z,27.25
2017-11-07T12:41:48.856Z,27.92
2017-11-07T12:44:16.483Z,27.23
2017-11-07T12:46:44.103Z,31.60
2017-11-07T12:49:11.697Z,28.73
2017-11-07T12:52:04.521Z,28.70
2017-11-07T12:54:32.142Z,33.03
2017-11-07T12:56:59.807Z,27.50
2017-11-07T12:59:27.451Z,28.95
2017-11-07T13:01:55.040Z,25.02
2017-11-07T13:04:22.655Z,25.92
2017-11-07T13:06:50.277Z,25.15
2017-11-07T13:09:17.931Z,24.33
2017-11-07T13:11:45.558Z,25.15
2017-11-07T13:14:13.226Z,24.42
2017-11-07T13:16:40.861Z,25.37
2017-11-07T13:19:08.443Z,24.00
2017-11-07T13:21:36.085Z,24.12
2017-11-07T13:24:03.707Z,25.60
2017-11-07T13:26:31.413Z,25.48
2017-11-07T13:28:59.035Z,25.60
2017-11-07T13:31:46.083Z,24.40
2017-11-07T13:34:13.674Z,23.40
2017-11-07T13:36:41.300Z,25.42
2017-11-07T13:39:08.923Z,22.98
2017-11-07T13:41:36.555Z,23.98
2017-11-07T13:44:04.151Z,22.30
2017-11-07T13:46:31.821Z,23.12
2017-11-07T13:48:59.461Z,23.67
2017-11-07T13:51:27.099Z,23.08
2017-11-07T13:53:54.832Z,25.70
2017-11-07T13:56:22.447Z,25.25
2017-11-07T13:58:50.023Z,23.17
2017-11-07T14:01:17.608Z,24.48
2017-11-07T14:03:46.074Z,23.90
2017-11-07T14:06:14.683Z,24.60
2017-11-07T14:08:42.296Z,24.08
2017-11-07T14:11:09.843Z,25.60
2017-11-07T14:13:37.413Z,29.45
2017-11-07T14:16:06.644Z,25.80
2017-11-07T14:18:35.028Z,24.80
2017-11-07T14:21:02.698Z,24.80
2017-11-07T14:23:41.991Z,24.40
2017-11-07T14:26:18.959Z,22.70
2017-11-07T14:28:47.003Z,24.10
2017-11-07T14:31:14.618Z,23.15
2017-11-07T14:33:42.207Z,22.37
2017-11-07T14:36:10.594Z,21.67
2017-11-07T14:38:38.207Z,21.70
2017-11-07T14:41:05.836Z,22.98
2017-11-07T14:43:33.490Z,22.27
2017-11-07T14:46:01.109Z,21.45
2017-11-07T14:48:28.726Z,22.73
2017-11-07T14:50:56.308Z,21.65
2017-11-07T14:53:23.936Z,22.13
2017-11-07T14:55:51.775Z,25.48
2017-11-07T14:58:20.132Z,21.35
2017-11-07T15:00:47.924Z,21.73
2017-11-07T15:03:16.299Z,20.17
2017-11-07T15:05:44.711Z,20.50
2017-11-07T15:08:12.287Z,20.45
2017-11-07T15:10:39.895Z,20.50
2017-11-07T15:13:08.238Z,20.05
2017-11-07T15:15:35.814Z,20.08
2017-11-07T15:18:03.503Z,21.23
2017-11-07T15:20:31.847Z,22.50
2017-11-07T15:22:59.428Z,20.83
2017-11-07T15:25:27.004Z,21.80
2017-11-07T15:27:54.615Z,22.70
2017-11-07T15:30:22.199Z,22.30
2017-11-07T15:32:49.780Z,22.85
2017-11-07T15:35:18.135Z,24.20
2017-11-07T15:37:45.750Z,22.40
2017-11-07T15:40:13.364Z,23.95
2017-11-07T15:42:40.975Z,24.52
2017-11-07T15:45:08.550Z,24.87
2017-11-07T15:47:36.223Z,27.50
2017-11-07T15:50:03.839Z,24.95
2017-11-07T15:52:31.419Z,26.60
2017-11-07T15:54:58.990Z,27.87
2017-11-07T15:57:26.557Z,27.40
2017-11-07T15:59:54.174Z,27.42
2017-11-07T16:02:22.574Z,28.48
2017-11-07T16:04:50.153Z,28.80
2017-11-07T16:07:17.770Z,27.15
2017-11-07T16:09:45.383Z,28.50
2017-11-07T16:12:12.953Z,29.42
2017-11-07T16:14:40.584Z,31.87
2017-11-07T16:17:08.213Z,30.37
2017-11-07T16:19:35.790Z,31.00
2017-11-07T16:22:03.410Z,31.92
2017-11-07T16:24:31.041Z,29.90
2017-11-07T16:26:58.614Z,31.92
2017-11-07T16:29:26.226Z,33.53
2017-11-07T16:31:54.607Z,33.05
2017-11-07T16:34:22.998Z,32.72
2017-11-07T16:36:50.589Z,33.53
2017-11-07T16:39:18.218Z,32.58
2017-11-07T16:41:45.830Z,33.20
2017-11-07T16:44:13.446Z,32.08
2017-11-07T16:46:41.069Z,32.38
2017-11-07T16:49:08.735Z,35.35
2017-11-07T16:51:36.356Z,32.58
2017-11-07T16:54:10.156Z,36.10
2017-11-07T16:56:37.732Z,36.33
2017-11-07T16:59:05.347Z,37.20
2017-11-07T17:01:33.008Z,41.35
2017-11-07T17:04:00.628Z,35.60
2017-11-07T17:06:32.232Z,35.75
2017-11-07T17:08:59.873Z,36.25
2017-11-07T17:11:27.456Z,36.78
2017-11-07T17:13:55.070Z,37.05
2017-11-07T17:16:22.657Z,36.78
2017-11-07T17:18:51.049Z,34.85
2017-11-07T17:21:18.674Z,34.63
2017-11-07T17:23:46.303Z,36.08
2017-11-07T17:26:14.730Z,36.80
2017-11-07T17:28:42.356Z,36.83
2017-11-07T17:31:09.943Z,33.55
2017-11-07T17:33:37.556Z,36.50
2017-11-07T17:36:06.097Z,38.33
2017-11-07T17:38:33.719Z,36.45
2017-11-07T17:41:01.328Z,35.90
2017-11-07T17:43:28.953Z,39.35
2017-11-07T17:45:56.579Z,35.50
2017-11-07T17:48:24.149Z,38.90
2017-11-07T17:50:51.762Z,40.67
2017-11-07T17:53:19.395Z,39.05
2017-11-07T17:55:46.985Z,37.88
2017-11-07T17:58:14.594Z,40.75
2017-11-07T18:00:42.263Z,42.10
2017-11-07T18:03:10.478Z,38.88
2017-11-07T18:05:38.902Z,38.92
2017-11-07T18:08:06.508Z,38.40
2017-11-07T18:10:34.133Z,37.28
2017-11-07T18:13:01.742Z,36.80
2017-11-07T18:15:29.357Z,38.80
2017-11-07T18:17:56.935Z,39.22
2017-11-07T18:20:24.548Z,39.22
2017-11-07T18:22:52.169Z,41.22
2017-11-07T18:25:21.959Z,39.40
2017-11-07T18:27:49.643Z,40.42
2017-11-07T18:30:17.220Z,40.97
2017-11-07T18:32:44.802Z,45.35
2017-11-07T18:35:12.410Z,44.40
2017-11-07T18:37:40.075Z,47.60
2017-11-07T18:40:07.723Z,44.25
2017-11-07T18:42:35.333Z,40.83
2017-11-07T18:45:03.730Z,41.97
2017-11-07T18:47:31.355Z,43.65
2017-11-07T18:49:58.930Z,41.63
2017-11-07T18:52:27.379Z,41.60
2017-11-07T18:54:54.970Z,44.65
2017-11-07T18:57:22.569Z,47.05
2017-11-07T18:59:50.148Z,44.85
2017-11-07T19:02:17.750Z,42.58
2017-11-07T19:04:45.358Z,42.42
2017-11-07T19:07:13.023Z,42.65
2017-11-07T19:09:40.647Z,42.75
2017-11-07T19:12:12.847Z,46.53
2017-11-07T19:14:40.458Z,46.03
2017-11-07T19:17:08.035Z,46.83
2017-11-07T19:19:36.386Z,44.85
2017-11-07T19:22:04.023Z,43.63
2017-11-07T19:24:31.597Z,51.37
2017-11-07T19:26:59.211Z,46.95
2017-11-07T19:29:26.850Z,47.30
2017-11-07T19:31:55.325Z,45.78
2017-11-07T19:34:22.952Z,42.15
2017-11-07T19:36:54.581Z,41.70
2017-11-07T19:39:22.245Z,40.97
2017-11-07T19:41:49.910Z,39.15
2017-11-07T19:44:17.619Z,41.92
2017-11-07T19:46:45.231Z,42.30
2017-11-07T19:49:12.855Z,45.53
2017-11-07T19:51:40.477Z,44.35
2017-11-07T19:54:08.292Z,44.25
2017-11-07T19:56:35.915Z,41.80
2017-11-07T19:59:03.582Z,40.90
2017-11-07T20:01:31.222Z,38.58
2017-11-07T20:03:58.803Z,41.00
2017-11-07T20:06:26.446Z,43.80
2017-11-07T20:08:54.079Z,39.70
2017-11-07T20:11:21.690Z,44.33
2017-11-07T20:13:49.306Z,43.00
2017-11-07T20:16:16.923Z,45.83
2017-11-07T20:18:44.568Z,43.42
2017-11-07T20:21:12.105Z,41.22
2017-11-07T20:23:39.723Z,45.12
2017-11-07T20:26:07.344Z,43.30
2017-11-07T20:28:34.963Z,44.03
2017-11-07T20:31:02.584Z,41.47
2017-11-07T20:33:30.198Z,41.58
2017-11-07T20:35:57.827Z,46.83
2017-11-07T20:38:25.491Z,44.45
2017-11-07T20:40:53.110Z,45.25
2017-11-07T20:43:20.736Z,45.33
2017-11-07T20:45:48.365Z,44.72
2017-11-07T20:48:15.942Z,45.22
2017-11-07T20:50:44.307Z,45.67
2017-11-07T20:53:12.742Z,42.17
2017-11-07T20:55:40.455Z,42.65
2017-11-07T20:58:08.851Z,44.63
2017-11-07T21:00:39.122Z,41.45
2017-11-07T21:03:06.702Z,40.72
2017-11-07T21:05:34.329Z,44.67
2017-11-07T21:08:01.947Z,44.10
2017-11-07T21:10:29.616Z,41.70
2017-11-07T21:12:57.231Z,46.45
2017-11-07T21:15:24.842Z,44.83
2017-11-07T21:17:52.460Z,44.40
2017-11-07T21:20:20.039Z,43.78
2017-11-07T21:22:47.661Z,44.25
2017-11-07T21:25:15.271Z,45.83
2017-11-07T21:27:42.934Z,43.53
2017-11-07T21:30:11.474Z,44.88
2017-11-07T21:32:39.054Z,44.95
2017-11-07T21:35:06.674Z,42.35
2017-11-07T21:37:34.253Z,46.08
2017-11-07T21:40:01.834Z,44.03
2017-11-07T21:42:29.459Z,45.45
2017-11-07T21:44:57.077Z,44.45
2017-11-07T21:47:24.742Z,46.08
2017-11-07T21:49:53.170Z,43.72
2017-11-07T21:52:20.751Z,47.25
2017-11-07T21:54:48.359Z,43.75
2017-11-07T21:57:15.978Z,45.47
2017-11-07T21:59:43.646Z,42.08
2017-11-07T22:02:11.228Z,42.80
2017-11-07T22:04:38.829Z,41.70
2017-11-07T22:07:06.408Z,44.25
2017-11-07T22:09:34.074Z,44.65
2017-11-07T22:12:01.656Z,46.42
2017-11-07T22:14:29.285Z,50.03
2017-11-07T22:16:59.582Z,47.08
2017-11-07T22:19:27.211Z,44.72
2017-11-07T22:21:54.889Z,49.42
2017-11-07T22:24:24.455Z,45.53
2017-11-07T22:26:52.090Z,47.47
2017-11-07T22:29:19.694Z,49.30
2017-11-07T22:31:47.911Z,49.85
2017-11-07T22:34:17.218Z,51.00
2017-11-07T22:36:44.871Z,51.00
2017-11-07T22:39:12.714Z,50.25
2017-11-07T22:41:41.095Z,48.25
2017-11-07T22:44:09.590Z,51.63
2017-11-07T22:46:37.208Z,53.38
2017-11-07T22:49:04.842Z,53.60
2017-11-07T22:51:32.422Z,55.25
2017-11-07T22:54:00.015Z,54.95
2017-11-07T22:56:28.475Z,52.70
2017-11-07T22:58:56.116Z,52.90
2017-11-07T23:01:23.747Z,49.63
2017-11-07T23:03:51.596Z,51.90
2017-11-07T23:06:19.987Z,48.55
2017-11-07T23:08:47.661Z,51.28
2017-11-07T23:11:15.278Z,51.40
2017-11-07T23:13:42.854Z,52.78
2017-11-07T23:16:11.250Z,52.97
2017-11-07T23:18:38.867Z,47.40
2017-11-07T23:21:06.568Z,48.28
2017-11-07T23:23:34.991Z,51.90
2017-11-07T23:26:02.625Z,50.83
2017-11-07T23:28:30.242Z,53.10
2017-11-07T23:30:57.826Z,50.60
2017-11-07T23:33:25.415Z,48.67
2017-11-07T23:35:53.025Z,50.30
2017-11-07T23:38:20.708Z,50.88
2017-11-07T23:40:48.323Z,49.70
2017-11-07T23:43:15.952Z,49.47
2017-11-07T23:45:43.570Z,48.03
2017-11-07T23:48:11.201Z,49.05
2017-11-07T23:50:38.781Z,51.00
2017-11-07T23:53:06.431Z,47.53
2017-11-07T23:55:34.137Z,52.50
2017-11-07T23:58:01.727Z,48.87
